Pagrindinis puslapis
METAR-TAF:

METAR-TAF

Oro uostai :

Miami International Airport

Majamis, Florida, Jungtinės Amerikos Valstijos

platuma: 25-47-26N, ilguma: 080-18-59W, Aukštis: 3 m

Dabartinis oras

Ataskaita buvo paskelbta 15 minutes, ne 04:53 UTC
Vėjas 9 kt iš Rytų
Temperatūra 28°C
Drėgmė 79%
Slėgis 1020 hPa
Matomumas: 16.1 km
Mažai debesys ne aukštis 2500 ft

METAR: KMIA 110453Z 10009KT 10SM FEW025 28/24 A3012 RMK AO2 SLP200 T02830244 403280272 $

Laikas: 01:08 (05:08 UTC)

Prognozė

Ataskaita buvo paskelbta 2 valandos ir 14 minutes, ne 02:54 UTC
Prognozė galioja nuo 11 metu 03 UTC su 12 metu 06 UTC
Vėjas 11 kt iš Rytų
Matomumas: 10 km
Mažai debesys ne aukštis 3000 ft
Išsisklaidę debesys ne aukštis 5000 ft

TAF: KMIA 110254Z 1103/1206 09011KT P6SM FEW030 SCT050

Orai ataskaitas ir orų prognozės (METAR, TAF).

turimą stotys yra geltonos ir raudonos taškus žemėlapyje.

Perkelti pele per norėdami pamatyti stoties vardą.

Tada spustelėkite, norėdami matyti oro stebėjimo ir prognozės.

Norėdami pakeisti žemėlapį: spustelėkite ant žalios mygtukų su juodo kryžiaus žemyn,; žalią mygtuką su brūkšneliu, jei norite nutolinti; arba žalių rodyklių gretimoms žemėlapius.


METAR-TAF: